Tiempo atmosférico en la estación meteorológica de Quintanar De La Orden, Toledo (691 m.)



Fecha
DESCASC
Temp. máxima en grados centígrados (hora)
DESCASC
Temp. mínima en grados centígrados (hora)
DESCASC
Temp. media en grados centígrados
DESCASC
Racha de viento máxima en m/sg (hora)
DESCASC
Velocidad máxima media en intervalos de 10 minutos(hora)
DESCASC
Precipitaciones diarias en mm
DESCASC
Precipitaciones de 00:00 a 06:00 en mm
DESCASC
Precipitaciones de 06:00 a 12:00 en mm
DESCASC
Precipitaciones de 12:00 a 18:00 en mm
DESCASC
Precipitaciones de 18:00 a 24:00 en mm
DESCASC
22-04-2019 16.2 (16:40) 8 (07:30) 12.1 7.22 (13:50) 3.61 (19:10) 3.4 3 0.4 0 0
21-04-2019 11.8 (13:50) 6.9 (08:00) 9.4 6.39 (15:10) 4.17 (15:20) 0 0 0 0 0
20-04-2019 12.8 (14:40) 7.8 (05:30) 10.3 7.78 (22:50) 3.89 (10:20) 13.5 2.8 0 2.4 8.3
19-04-2019 11.4 (13:00) 7.9 (23:10) 9.6 5.56 (16:50) 2.5 (16:50) 22.3 0 0 12.5 9.8
18-04-2019 12.6 (00:10) 9.2 (00:00) 10.9 9.17 (01:40) 3.61 (01:40) 32.6 11.2 18 2.1 1.3
17-04-2019 23.1 (17:00) 9.6 (00:00) 16.4 15 (10:20) 6.94 (11:10) 0.9 0 0 0 0.9
16-04-2019 22.5 (17:20) 7.1 (00:00) 14.8 12.78 (23:30) 5 (23:59) 0 0 0 0 0
15-04-2019 24.8 (16:50) 11.9 (00:00) 18.3 13.89 (16:40) 7.78 (22:00) 0 0 0 0 0
14-04-2019 23.6 (17:30) 7.7 (00:00) 15.7 8.06 (20:00) 5.56 (20:00) 0 0 0 0 0
13-04-2019 20.9 (16:40) 2.8 (00:00) 11.8 5.83 (17:40) 2.22 (14:40) 0 0 0 0 0
12-04-2019 16.9 (17:30) 2.2 (07:20) 9.5 9.72 (16:30) 3.89 (13:10) 0 0 0 0 0
11-04-2019 16.1 (17:50) 2.2 (00:00) 9.2 9.44 (15:50) 4.72 (17:00) 0 0 0 0 0
10-04-2019 14.4 (17:20) 2.9 (00:00) 8.6 11.67 (15:30) 5.28 (16:00) 2.5 0 0 0.1 2.4
09-04-2019 13.2 (17:20) 4.2 (00:00) 8.7 15 (15:20) 7.22 (17:40) 1 0 0 0.5 0.5
08-04-2019 16.6 (17:00) 8.7 (00:00) 12.7 11.11 (14:40) 5.56 (12:40) 2.8 0.6 2.2 0 0
07-04-2019 12.3 (16:10) 3.7 (00:00) 8 9.72 (17:40) 5.56 (09:50) 0.2 0.1 0 0 0.1
06-04-2019 10.6 (16:20) 3.8 (00:00) 7.2 16.11 (15:30) 6.94 (11:40) 3.6 0.6 0.2 2.8 0
05-04-2019 9.9 (00:10) 3.4 (00:00) 6.6 12.22 (14:30) 8.33 (14:30) 7.4 0 0.2 4.4 2.8
04-04-2019 14.2 (17:30) 0.8 (00:00) 7.5 8.06 (20:10) 5.28 (20:10) 0 0 0 0 0
03-04-2019 18.5 (16:10) 6.6 (08:30) 12.5 11.11 (14:00) 5.83 (19:10) 0 0 0 0 0
02-04-2019 16.9 (15:30) 8.4 (00:00) 12.6 8.33 (19:20) 4.44 (19:20) 0.1 0.1 0 0 0
01-04-2019 16.1 (17:50) 8.8 (00:00) 12.5 7.5 (18:10) 4.17 (18:10) 0.7 0.7 0 0 0
31-03-2019 11 (15:30) 7.3 (00:00) 9.2 9.44 (08:00) 3.89 (07:40) 9.1 0 1.5 6 1.6
30-03-2019 19.5 (16:40) 5.8 (00:00) 12.7 11.11 (02:40) 4.72 (02:30) 0 0 0 0 0
29-03-2019 16.7 (14:30) 5.2 (00:00) 11 11.67 (13:00) 4.72 (10:40) 0 0 0 0 0
28-03-2019 19.4 (15:40) 4 (00:00) 11.7 8.61 (00:10) 3.33 (00:10) 0 0 0 0 0
27-03-2019 18.9 (16:10) 4 (00:00) 11.4 8.06 (23:30) 3.61 (23:59) 0 0 0 0 0
26-03-2019 21 (15:10) 4.3 (00:00) 12.7 11.11 (12:10) 4.44 (12:20) 0 0 0 0 0
25-03-2019 23.1 (15:30) 4.6 (00:00) 13.9 6.67 (17:00) 3.61 (19:10) 0 0 0 0 0

Gráficas

Temp. máximas Temp. mínimas Temp. medias Precipitaciones Rachas de viento máximas Velocidades máximas media en intervalos de 10 minutos

Datos horarios

Fecha y hora oficial Temperatura (ºC) Velocidad del viento (km/h) Dirección del viento Racha (km/h) Dirección de racha Precipitación (mm) Presión (hPa) Tendencia (hPa) Humedad (%)
2019-04-23 23:00:00 5.9 10 Noroeste 37 Noroeste 0.3 925 3.1 83
2019-04-23 22:00:00 7.1 9 Oeste 27 Sudoeste 0 924.4 3.1 70
2019-04-23 21:00:00 7.5 13 Sudoeste 31 Noroeste 0 922.5 1.8 65
2019-04-23 20:00:00 9.2 3 Noroeste 31 Noroeste 0.2 921.9 1.8 64
2019-04-23 19:00:00 9.7 14 Oeste 42 Sudoeste 0 921.3 1.1 58
2019-04-23 18:00:00 10.8 4 Oeste 41 Sudoeste 0 920.7 0.4 56
2019-04-23 17:00:00 11.6 19 Sudoeste 44 Sudoeste 0 920.1 -0.6 43
2019-04-23 16:00:00 11.1 26 Sudoeste 40 Sudoeste 0 920.2 0.1 46
2019-04-23 15:00:00 10 14 Oeste 31 Sudoeste 0 920.3 0.1 64
2019-04-23 14:00:00 9.3 6 Oeste 37 Sudoeste 0 920.7 0.9 75
2019-04-23 13:00:00 9.8 23 Sudoeste 43 Sudoeste 0 920.1 0.7 76
2019-04-23 12:00:00 10 19 Sudoeste 31 Sudoeste 0.6 920.2 1.1 77
2019-04-23 11:00:00 10.1 5 Oeste 35 Sudoeste 0.3 919.8 0.9 82
2019-04-23 10:00:00 9.4 25 Sudoeste 37 Sudoeste 0 919.4 0.4 86
2019-04-23 09:00:00 10.2 8 Sudoeste 25 Sudoeste 0 919.1 0.2 76
2019-04-23 08:00:00 10 11 Sudoeste 24 Sudoeste 0 918.9 -0.6 81
2019-04-23 07:00:00 10 9 Sudoeste 27 Sudoeste 0 919 -0.6 87
2019-04-23 06:00:00 10.1 15 Sudoeste 29 Sudoeste 0 918.9 -1.1 84
2019-04-23 05:00:00 10.3 9 Sudoeste 23 Sudoeste 0 919.5 -1.6 84
2019-04-23 04:00:00 10.6 9 Sudoeste 18 Sudoeste 0 919.6 -1.2 82
2019-04-23 03:00:00 10.5 9 Sudoeste 19 Sudoeste 0 920 -1.3 81
2019-04-23 02:00:00 10.9 11 Sudoeste 16 Sudoeste 0 921.1 0.1 79
2019-04-23 01:00:00 11.4 4 Sur 12 Sudoeste 0 920.8 -0.2 77
2019-04-23 00:00:00 11.6 8 Sudoeste 17 Sudoeste 0 921.3 0.5 74
2019-04-22 23:00:00 12.6 8 Sudoeste 17 Sudoeste 0 921 -0.2 71
2019-04-22 22:00:00 12.7 5 Sudoeste 11 Sudoeste 0 921 -0.2 65
2019-04-22 21:00:00 13.3 6 Sudoeste 21 Sudoeste 0 920.8 -0.5 61
2019-04-22 20:00:00 14.6 5 Sudoeste 20 Sudoeste 0 921.2 -0.6 50
2019-04-22 19:00:00 15.2 13 Sudoeste 19 Sudoeste 0 921.2 -1.1 48
2019-04-22 18:00:00 15.1 12 Sudoeste 19 Sudoeste 0 921.3 -1.4 47
2019-04-22 17:00:00 15.3 7 Noroeste 21 Noroeste 0 921.8 -1.5 47
2019-04-22 16:00:00 15 8 Noroeste 22 Noroeste 0 922.3 -1.4 50
2019-04-22 15:00:00 14.9 5 Noroeste 26 Noroeste 0 922.7 -1.9 54
2019-04-22 14:00:00 14.2 7 Noroeste 26 Noroeste 0 923.3 -1.6 57
2019-04-22 13:00:00 13 9 Noroeste 23 Noroeste 0 923.7 -1.2 62
2019-04-22 12:00:00 11.5 9 Noroeste 19 Noroeste 0 924.6 -0.4 69
2019-04-22 11:00:00 10.3 8 Noroeste 14 Noroeste 0 924.9 0 79
2019-04-22 10:00:00 9.5 4 Noroeste 10 Noroeste 0 924.9 -0.3 90
2019-04-22 09:00:00 8.6 4 Nordeste 6 Nordeste 0.1 925 -0.1 93
2019-04-22 08:00:00 8.2 2 Noroeste 7 Noroeste 0.2 924.9 -1.1 93
2019-04-22 07:00:00 8.2 3 Noroeste 6 Noroeste 0.1 925.2 -1.3 93
2019-04-22 06:00:00 8.2 0 Calma 9 Noroeste 0.2 925.1 -2.2 93
2019-04-22 05:00:00 8.6 5 Noroeste 9 Noroeste 2.2 926 -1.7 93
2019-04-22 04:00:00 9 0 Calma 2 Sudeste 0.4 926.5 -1.9 91
2019-04-22 03:00:00 9.2 0 Calma 6 Noroeste 0.2 927.3 -1.4 91
2019-04-22 02:00:00 9.5 0 Calma 5 Sudeste 0 927.7 -1.3 87
2019-04-22 01:00:00 9.5 0 Calma 4 Nordeste 0 928.4 -0.8 87
2019-04-22 00:00:00 9.5 0 Calma 3 Sudoeste 0 928.7 -0.3 87
2019-04-21 23:00:00 9.8 0 Calma 3 Noroeste 0 929 0.2 85
2019-04-21 22:00:00 9.8 0 Calma 5 Nordeste 0 929.2 0.2 84
2019-04-21 21:00:00 9.8 2 Nordeste 9 Nordeste 0 929 -0.3 83
2019-04-21 20:00:00 9.8 6 Nordeste 14 Nordeste 0 928.8 -0.6 79
2019-04-21 19:00:00 9.7 8 Nordeste 21 Nordeste 0 929 -0.9 80
2019-04-21 18:00:00 10.2 11 Nordeste 21 Nordeste 0 929.3 -0.6 73
2019-04-21 17:00:00 10.8 9 Nordeste 20 Nordeste 0 929.4 -1 64
2019-04-21 16:00:00 10.7 10 Nordeste 23 Nordeste 0 929.9 -1.5 64
2019-04-21 15:00:00 11.2 13 Nordeste 22 Nordeste 0 929.9 -1.8 60
2019-04-21 14:00:00 11.6 12 Nordeste 23 Nordeste 0 930.4 -1.1 57
2019-04-21 13:00:00 11.2 10 Nordeste 21 Nordeste 0 931.4 -0.4 60
2019-04-21 12:00:00 10.6 9 Nordeste 17 Nordeste 0 931.7 -0.1 63
2019-04-21 11:00:00 9.8 10 Nordeste 21 Nordeste 0 931.5 -0.9 69
2019-04-21 10:00:00 8.4 11 Nordeste 19 Nordeste 0 931.8 -0.5 77
2019-04-21 09:00:00 7.2 11 Nordeste 21 Nordeste 0 931.8 -1.2 83
2019-04-21 08:00:00 7 9 Nordeste 17 Nordeste 0 932.4 -1.1 86
2019-04-21 07:00:00 7.3 7 Nordeste 17 Nordeste 0 932.3 -1.6 86
2019-04-21 06:00:00 7.3 10 Nordeste 19 Nordeste 0 933 -2.2 86
2019-04-21 05:00:00 7.4 11 Nordeste 19 Nordeste 0 933.5 -2.3 86
2019-04-21 04:00:00 7.5 10 Nordeste 16 Nordeste 0 933.9 -2.5 85
2019-04-21 03:00:00 7.7 8 Nordeste 19 Nordeste 0 935.2 -1.5 83
2019-04-21 02:00:00 7.9 8 Nordeste 22 Nordeste 0 935.8 -1 78
2019-04-21 01:00:00 8.3 10 Nordeste 23 Nordeste 0 936.4 -1 82
2019-04-21 00:00:00 8.6 9 Nordeste 19 Nordeste 0 936.7 -0.5 82
2019-04-20 23:00:00 8.3 10 Nordeste 28 Nordeste 0.1 936.8 -0.1 78
2019-04-20 22:00:00 8 11 Nordeste 27 Nordeste 1.2 937.4 1.1 85
2019-04-20 21:00:00 8.7 12 Nordeste 23 Nordeste 3.1 937.2 0.9 89
2019-04-20 20:00:00 9.1 8 Nordeste 17 Nordeste 1.3 936.9 0.7 87
2019-04-20 19:00:00 9.2 4 Este 18 Sudeste 2.6 936.3 0 86
2019-04-20 18:00:00 9.9 7 Sudeste 27 Sudeste 1 936.3 0.5 83
2019-04-20 17:00:00 10.8 6 Sudeste 24 Sudeste 0.7 936.2 0.4 74
2019-04-20 16:00:00 11.6 5 Sudeste 16 Sudoeste 0.3 936.3 0.8 65
2019-04-20 15:00:00 12.5 6 Sudeste 24 Sudeste 0.4 935.8 0.1 57
2019-04-20 14:00:00 12.2 0 Calma 12 Nordeste 0 935.8 0.5 75
2019-04-20 13:00:00 11.6 7 Nordeste 11 Nordeste 0 935.5 0.5 72
2019-04-20 12:00:00 11.3 6 Nordeste 14 Norte 0 935.7 0.7 69
2019-04-20 11:00:00 10.8 2 Norte 27 Nordeste 0 935.3 1.1 70
2019-04-20 10:00:00 9.6 8 Nordeste 18 Norte 0 935 1.1 77
2019-04-20 09:00:00 8.9 4 Norte 11 Noroeste 0 935 -0.1 79
2019-04-20 08:00:00 8.5 0 Calma 20 Nordeste 0 934.2 -0.9 81
2019-04-20 07:00:00 8 8 Norte 16 Nordeste 0 933.9 -2.1 88
2019-04-20 06:00:00 8 8 Nordeste 17 Norte 0 935.1 -2.4 92
2019-04-20 05:00:00 8 9 Nordeste 21 Nordeste 0 935.1 -3.2 93
2019-04-20 04:00:00 8.5 8 Norte 17 Norte 0 936 -2.5 94
2019-04-20 03:00:00 8.5 7 Norte 16 Noroeste 0.7 937.5 -0.8 94
2019-04-20 02:00:00 8.7 0 Calma 6 Norte 1.6 938.3 -0.2 94
2019-04-20 01:00:00 8.6 4 Norte 8 Nordeste 0.5 938.5 0.2 94
2019-04-20 00:00:00 8.2 5 Nordeste 15 Nordeste 0.2 938.3 0.3 94
2019-04-19 23:00:00 8.1 7 Nordeste 11 Nordeste 0.5 938.5 1 93
2019-04-19 22:00:00 8.1 0 Calma 6 Este 1.9 938.3 1.5 92
2019-04-19 21:00:00 8.2 0 Calma 9 Sudeste 2.3 938 1.5 92
2019-04-19 20:00:00 8.3 2 Este 13 Este 2.6 937.5 1 91
2019-04-19 19:00:00 8.4 8 Este 15 Este 2.3 936.8 0.2 91
2019-04-19 18:00:00 8.5 5 Este 18 Este 2.1 936.5 0.2 90
2019-04-19 17:00:00 8.9 9 Este 20 Nordeste 2.4 936.5 0.2 88
2019-04-19 16:00:00 9.5 4 Este 14 Este 2.4 936.6 0.9 87
2019-04-19 15:00:00 10.1 3 Este 13 Este 3.1 936.3 0.3 87
2019-04-19 14:00:00 10.9 3 Sudeste 13 Sudeste 2.5 936.3 0.7 84
2019-04-19 13:00:00 11.3 3 Sudeste 9 Sur 0 935.7 0.3 75
2019-04-19 12:00:00 11 4 Sudeste 12 Este 0 936 0.9 79
2019-04-19 11:00:00 10.4 4 Sudeste 14 Sudeste 0 935.6 1 85
2019-04-19 10:00:00 9.7 3 Sudeste 13 Sudeste 0 935.4 1.3 87
2019-04-19 09:00:00 9.5 5 Sudeste 12 Sudeste 0 935.1 1.4 89
2019-04-19 08:00:00 9.4 3 Sur 13 Sur 0 934.6 1 89
2019-04-19 07:00:00 9.4 5 Sudeste 12 Sur 0 934.1 0.6 91
2019-04-19 06:00:00 9.2 5 Sur 11 Sur 0 933.7 0.3 90
2019-04-19 05:00:00 9.4 5 Sur 13 Sudeste 0 933.6 0.2 91
2019-04-19 04:00:00 9.3 8 Sur 13 Sur 0 933.5 0.1 91
2019-04-19 03:00:00 9.3 6 Sudeste 17 Sudeste 0 933.4 0.2 90
2019-04-19 02:00:00 9.5 4 Sudeste 14 Sudeste 0 933.4 0.6 88
2019-04-19 01:00:00 9.6 4 Sudeste 17 Sur 0 933.4 0.8 88
2019-04-19 00:00:00 9.6 5 Sur 17 Sudeste 0 933.2 1.2 88
2019-04-18 23:00:00 10.1 7 Sur 18 Sudeste 0 932.8 1.2 88
2019-04-18 22:00:00 10.3 5 Sudeste 17 Sur 0.7 932.6 1.2 85
2019-04-18 21:00:00 10.8 5 Sur 14 Sudeste 0.6 932 1 80
2019-04-18 20:00:00 11.2 5 Sur 12 Sur 0 931.6 0.4 73
2019-04-18 19:00:00 11.7 4 Sur 11 Sudeste 0 931.4 -0.9 71
2019-04-18 18:00:00 12 4 Sudeste 10 Este 0 931 -0.8 69
2019-04-18 17:00:00 12 4 Sudeste 15 Este 0 931.2 -1.4 72
2019-04-18 16:00:00 11.5 5 Sudeste 18 Este 0 932.3 -1.6 72
2019-04-18 15:00:00 10.7 5 Este 18 Este 0 931.8 -2.8 78
2019-04-18 14:00:00 9.8 10 Este 18 Este 0.6 932.6 -1.8 83
2019-04-18 13:00:00 9.8 0 Calma 12 Sur 1.5 933.9 -0.2 87
2019-04-18 12:00:00 9.5 6 Sur 17 Sudoeste 2.5 934.6 1.8 90
2019-04-18 11:00:00 9.8 5 Sur 12 Sudoeste 1.8 934.4 1 92
2019-04-18 10:00:00 9.7 6 Sur 15 Sudoeste 2 934.1 2.2 93
2019-04-18 09:00:00 9.7 3 Noroeste 8 Sur 3.6 932.8 0.3 92
2019-04-18 08:00:00 9.5 6 Sudoeste 27 Sudoeste 4.4 933.4 0.5 92
2019-04-18 07:00:00 10.5 7 Sudeste 20 Sudeste 3.7 931.9 -1.9 92
2019-04-18 06:00:00 10.3 8 Sudeste 29 Sudeste 3.3 932.5 -1.9 92
2019-04-18 05:00:00 10.3 12 Sudeste 31 Sudeste 3.4 932.9 -1.9 91
2019-04-18 04:00:00 10.6 10 Sudeste 24 Sudeste 1.9 933.8 -0.6 91
2019-04-18 03:00:00 10.9 8 Sudeste 25 Sudeste 2.3 934.4 0.2 91
2019-04-18 02:00:00 11.5 10 Sudeste 33 Sudeste 0.3 934.8 1.7 84
2019-04-18 01:00:00 12.3 10 Sudeste 30 Sudeste 0 934.4 1.8 78
2019-04-18 00:00:00 12.5 13 Sudeste 33 Sudeste 0 934.2 1.2 77
2019-04-17 23:00:00 13.6 10 Sudeste 33 Sudoeste 0 933.1 3 75
2019-04-17 22:00:00 14.9 8 Sudeste 28 Sudeste 0.9 932.6 3.2 71
2019-04-17 21:00:00 17.8 10 Sur 41 Sudeste 0 933 3.4 47
2019-04-17 20:00:00 18.7 15 Sudeste 48 Sudeste 0 930.1 0.9 41
2019-04-17 19:00:00 20.1 20 Sudeste 46 Sudeste 0 929.4 -0.7 37
2019-04-17 18:00:00 21.4 17 Sudeste 51 Sudeste 0 929.6 -1.3 34
2019-04-17 17:00:00 22.6 18 Sudeste 48 Sudeste 0 929.2 -3.3 31
2019-04-17 16:00:00 21.9 19 Sudeste 43 Sudeste 0 930.1 -2.5 34
2019-04-17 15:00:00 22 17 Sudeste 39 Sudeste 0 930.9 -2.6 34
2019-04-17 14:00:00 20.5 14 Sudeste 43 Sudeste 0 932.5 -0.8 40
2019-04-17 13:00:00 17.4 18 Sudeste 48 Sudeste 0 932.6 -1.3 47
2019-04-17 12:00:00 16.1 18 Sudeste 53 Sudeste 0 933.5 -0.8 55
2019-04-17 11:00:00 13.6 20 Sudeste 54 Sudeste 0 933.3 -1 64
2019-04-17 10:00:00 12.3 19 Sudeste 44 Sudeste 0 933.9 -0.5 71
2019-04-17 09:00:00 10.9 13 Sudeste 50 Sudeste 0 934.3 -0.4 80
2019-04-17 08:00:00 9.8 14 Sudeste 41 Sudeste 0 934.3 -0.6 84
2019-04-17 07:00:00 9.6 14 Sudeste 41 Sudeste 0 934.4 -0.6 84
2019-04-17 06:00:00 9.8 16 Sudeste 41 Sudeste 0 934.7 -1.1 84
2019-04-17 05:00:00 9.9 17 Sudeste 41 Sudeste 0 934.9 -1.1 83
2019-04-17 04:00:00 10.4 19 Sudeste 45 Sudeste 0 935 -0.8 78
2019-04-17 03:00:00 11 19 Sudeste 46 Sudeste 0 935.8 0.5 72
2019-04-17 02:00:00 11.7 14 Sudeste 40 Sudeste 0 936 0.3 70
2019-04-17 01:00:00 12.4 17 Sudeste 47 Sudeste 0 935.8 0.4 68
2019-04-17 00:00:00 13.4 18 Sudeste 46 Sudeste 0 935.3 0.8 64
2019-04-16 23:00:00 14.8 17 Sudeste 43 Sudeste 0 935.7 1.2 59
2019-04-16 22:00:00 17.5 12 Sudeste 28 Sudeste 0 935.4 0.5 36
2019-04-16 21:00:00 19.5 6 Sudeste 21 Sudeste 0 934.5 -0.7 27
2019-04-16 20:00:00 21.2 8 Sudeste 19 Sudeste 0 934.5 -1.6 24
2019-04-16 19:00:00 21.4 4 Sudeste 20 Sudeste 0 934.9 -2.2 22
2019-04-16 18:00:00 21.6 5 Sur 17 Sudeste 0 935.2 -2.3 22
2019-04-16 17:00:00 21.6 6 Sudoeste 23 Sudoeste 0 936.1 -1.7 22
2019-04-16 16:00:00 21 8 Sudoeste 20 Sudeste 0 937.1 -1.2 25
2019-04-16 15:00:00 19.6 6 Sur 20 Sudoeste 0 937.5 -1.3 30
2019-04-16 14:00:00 18.9 4 Sur 18 Sudeste 0 937.8 -0.9 34
2019-04-16 13:00:00 17.4 7 Sur 18 Sudeste 0 938.3 -0.7 39
2019-04-16 12:00:00 16.7 6 Sudeste 15 Sudoeste 0 938.8 0.1 44
2019-04-16 11:00:00 14.6 5 Sur 15 Sudeste 0 938.7 0.3 52
2019-04-16 10:00:00 11.8 8 Nordeste 15 Nordeste 0 939 0.8 65
2019-04-16 09:00:00 8.9 5 Nordeste 9 Nordeste 0 938.7 0.4 87
2019-04-16 08:00:00 7.2 0 Calma 7 Nordeste 0 938.4 0 90
2019-04-16 07:00:00 7.6 3 Nordeste 5 Nordeste 0 938.2 0.5 85
2019-04-16 06:00:00 8 0 Calma 4 Nordeste 0 938.3 1 85
2019-04-16 05:00:00 8.6 0 Calma 8 Sudoeste 0 938.4 0.9 85
2019-04-16 04:00:00 9.4 0 Calma 13 Noroeste 0 937.7 0.2 86
2019-04-16 03:00:00 10.2 6 Noroeste 18 Noroeste 0 937.3 0.1 81
2019-04-16 02:00:00 11.1 6 Norte 19 Noroeste 0 937.5 1.3 71
2019-04-16 01:00:00 12.1 6 Noroeste 30 Noroeste 0 937.5 2.3 61
2019-04-16 00:00:00 13.4 12 Noroeste 30 Noroeste 0 937.2 4 57
2019-04-15 23:00:00 13.8 13 Noroeste 40 Noroeste 0 936.2 4.2 62
2019-04-15 22:00:00 14.3 28 Noroeste 45 Noroeste 0 935.2 3.6 58
2019-04-15 21:00:00 17.4 22 Noroeste 45 Noroeste 0 933.2 2.1 41
2019-04-15 20:00:00 21.6 22 Noroeste 39 Noroeste 0 932 0.1 30
2019-04-15 19:00:00 23.6 9 Oeste 44 Sudoeste 0 931.6 -0.9 26
2019-04-15 18:00:00 23.7 18 Oeste 46 Noroeste 0 931.1 -1.3 26
2019-04-15 17:00:00 24.5 26 Sudoeste 50 Sudoeste 0 931.9 -1.6 25
2019-04-15 16:00:00 23.7 27 Sudoeste 44 Sudoeste 0 932.5 -2 30
2019-04-15 15:00:00 23.4 14 Sudoeste 35 Sudoeste 0 932.4 -2.4 37
2019-04-15 14:00:00 20.9 13 Sudoeste 28 Sudoeste 0 933.5 -0.8 43
2019-04-15 13:00:00 19.9 9 Sudoeste 20 Sudoeste 0 934.5 0.5 47
2019-04-15 12:00:00 18.6 10 Sur 21 Sudoeste 0 934.8 0 54
2019-04-15 11:00:00 18.2 8 Sur 19 Sudeste 0 934.3 -0.4 58
2019-04-15 10:00:00 15 8 Sudeste 18 Sudeste 0 934 -0.7 70
2019-04-15 09:00:00 13.6 5 Sudeste 10 Sudeste 0 934.8 -0.1 76
2019-04-15 08:00:00 12.1 3 Sudeste 8 Sudeste 0 934.7 -0.5 78
2019-04-15 07:00:00 12.1 0 Calma 10 Sudeste 0 934.7 -1 76
2019-04-15 06:00:00 12.8 3 Sur 8 Sur 0 934.9 -1 75
2019-04-15 05:00:00 12.8 2 Sudeste 7 Sudeste 0 935.2 -1 73
2019-04-15 04:00:00 13.4 0 Calma 10 Sudoeste 0 935.7 -0.9 68
2019-04-15 03:00:00 14.3 5 Sur 8 Sur 0 935.9 -0.8 64
2019-04-15 02:00:00 14.7 0 Calma 5 Nordeste 0 936.2 -0.6 62
2019-04-15 01:00:00 14.9 0 Calma 8 Oeste 0 936.6 0.2 58
2019-04-15 00:00:00 15.7 2 Sudoeste 12 Oeste 0 936.7 0.9 56
2019-04-14 23:00:00 16.4 5 Oeste 16 Sudoeste 0 936.8 1.4 50
2019-04-14 22:00:00 17.5 11 Sudoeste 22 Sudoeste 0 936.4 1.2 45
2019-04-14 21:00:00 19.2 15 Sudoeste 28 Sudoeste 0 935.8 0.2 42
2019-04-14 20:00:00 21 20 Sudoeste 29 Sudoeste 0 935.4 -0.3 39
2019-04-14 19:00:00 22.4 6 Oeste 24 Sudoeste 0 935.2 -1.3 36
2019-04-14 18:00:00 22.6 9 Sudoeste 22 Sudoeste 0 935.6 -1.7 34
2019-04-14 17:00:00 22.9 4 Noroeste 17 Noroeste 0 935.7 -1.8 34
2019-04-14 16:00:00 22.3 4 Oeste 19 Noroeste 0 936.5 -1.5 35
2019-04-14 15:00:00 21.2 9 Sudoeste 28 Sudoeste 0 937.3 -1.2 39
2019-04-14 14:00:00 20.1 3 Oeste 19 Noroeste 0 937.5 -0.9 45
2019-04-14 13:00:00 18.7 4 Oeste 15 Sudoeste 0 938 -0.5 49
2019-04-14 12:00:00 16.8 3 Noroeste 12 Sudoeste 0 938.5 0 56
2019-04-14 11:00:00 14.4 4 Sudoeste 9 Sudoeste 0 938.4 0.1 61
2019-04-14 10:00:00 12 3 Sudoeste 7 Sudoeste 0 938.5 0.5 60
2019-04-14 09:00:00 9.2 0 Calma 4 Sudeste 0 938.5 0.3 67
2019-04-14 08:00:00 7.9 0 Calma 5 Sudeste 0 938.3 0.4 66
2019-04-14 07:00:00 8.1 0 Calma 3 Sudeste 0 938 -0.3 64
2019-04-14 06:00:00 8.9 0 Calma 3 Nordeste 0 938.2 -0.4 61
2019-04-14 05:00:00 9.2 0 Calma 4 Sudoeste 0 937.9 -0.8 59
2019-04-14 04:00:00 9.4 0 Calma 5 Sudoeste 0 938.3 -0.7 55
2019-04-14 03:00:00 10 0 Calma 6 Sudoeste 0 938.6 -0.4 41
2019-04-14 02:00:00 10.7 4 Sudoeste 8 Sudoeste 0 938.7 0.1 30
2019-04-14 01:00:00 11 0 Calma 5 Sudoeste 0 939 0.7 27
2019-04-14 00:00:00 11.3 0 Calma 17 Sudoeste 0 939 1.3 26
2019-04-13 23:00:00 13.6 0 Calma 6 Nordeste 0 938.6 1.1 22
2019-04-13 22:00:00 14.9 5 Nordeste 8 Nordeste 0 938.3 1.4 19
2019-04-13 21:00:00 17.5 4 Nordeste 10 Norte 0 937.7 0.4 16
2019-04-13 20:00:00 19.8 4 Norte 17 Noroeste 0 937.5 0.1 16
2019-04-13 19:00:00 19.5 6 Norte 20 Noroeste 0 936.9 -1.4 15
2019-04-13 18:00:00 19.9 7 Noroeste 21 Noroeste 0 937.3 -0.9 15
2019-04-13 17:00:00 20.6 3 Noroeste 20 Noroeste 0 937.4 -1.1 17
2019-04-13 16:00:00 19.9 4 Noroeste 19 Sudoeste 0 938.3 -0.7 19
2019-04-13 15:00:00 18.9 3 Noroeste 17 Noroeste 0 938.2 -1.3 21
2019-04-13 14:00:00 17.4 2 Norte 20 Noroeste 0 938.5 -1.3 24
2019-04-13 13:00:00 16.7 3 Noroeste 13 Noroeste 0 939 -0.6 29
2019-04-13 12:00:00 15.1 2 Noroeste 9 Noroeste 0 939.5 0.1 34
2019-04-13 11:00:00 11.4 2 Oeste 6 Sudoeste 0 939.8 0.8 48
2019-04-13 10:00:00 8.5 3 Nordeste 9 Nordeste 0 939.6 1.3 58
2019-04-13 09:00:00 5.2 5 Nordeste 9 Nordeste 0 939.4 1.5 70
2019-04-13 08:00:00 3 2 Nordeste 16 Noroeste 0 939 0.6 71
2019-04-13 07:00:00 3.8 0 Calma 19 Noroeste 0 938.3 0.2 69
2019-04-13 06:00:00 4 0 Calma 8 Nordeste 0 937.9 -0.3 67
2019-04-13 05:00:00 4.8 4 Nordeste 9 Nordeste 0 938.4 0.1 63
2019-04-13 04:00:00 5.1 4 Nordeste 7 Nordeste 0 938.1 0.1 61
2019-04-13 03:00:00 5.4 5 Nordeste 9 Nordeste 0 938.2 0.6 57
2019-04-13 02:00:00 7.2 3 Nordeste 5 Noroeste 0 938.3 0.9 46
2019-04-13 01:00:00 9 3 Noroeste 8 Noroeste 0 938 0.8 40
2019-04-13 00:00:00 9.7 0 Calma 6 Sudoeste 0 937.6 1.1 39
2019-04-12 23:00:00 10.5 0 Calma 6 Noroeste 0 937.4 0.7 36
2019-04-12 22:00:00 12.4 3 Nordeste 11 Nordeste 0 937.2 0.9 31
2019-04-12 21:00:00 14.1 8 Nordeste 18 Nordeste 0 936.5 0.2 27
2019-04-12 20:00:00 16.2 9 Nordeste 25 Nordeste 0 936.7 0 24
2019-04-12 19:00:00 16.6 10 Nordeste 31 Nordeste 0 936.3 -1 24
2019-04-12 18:00:00 16.5 6 Norte 24 Nordeste 0 936.3 -1.3 25
2019-04-12 17:00:00 16.2 7 Norte 35 Noroeste 0 936.7 -1.1 28
2019-04-12 16:00:00 16.1 7 Norte 33 Noroeste 0 937.3 -1 30
2019-04-12 15:00:00 15.2 5 Norte 27 Nordeste 0 937.6 -1.4 34
2019-04-12 14:00:00 13.5 9 Norte 27 Nordeste 0 937.8 -1.2 35
2019-04-12 13:00:00 13 9 Norte 26 Nordeste 0 938.3 -0.3 38
2019-04-12 12:00:00 11.5 10 Nordeste 18 Nordeste 0 939 0 46
2019-04-12 11:00:00 8.9 5 Norte 12 Norte 0 939 0.2 60
2019-04-12 10:00:00 6.6 4 Norte 12 Nordeste 0 938.6 0.3 71
2019-04-12 09:00:00 3.6 4 Norte 9 Nordeste 0 939 0.8 79
2019-04-12 08:00:00 2.3 3 Norte 9 Noroeste 0 938.8 0.8 81
2019-04-12 07:00:00 2.5 0 Calma 8 Noroeste 0 938.3 0 79
2019-04-12 06:00:00 3.4 0 Calma 7 Noroeste 0 938.2 0.1 78
2019-04-12 05:00:00 3.7 0 Calma 6 Nordeste 0 938 -0.5 75
2019-04-12 04:00:00 4.1 4 Nordeste 8 Norte 0 938.3 0.1 72
2019-04-12 03:00:00 4.5 4 Nordeste 9 Nordeste 0 938.1 -0.2 68
2019-04-12 02:00:00 5.2 5 Nordeste 8 Nordeste 0 938.5 0.6 65
2019-04-12 01:00:00 5.9 5 Nordeste 10 Nordeste 0 938.2 0.5 60
2019-04-12 00:00:00 7.6 6 Nordeste 11 Nordeste 0 938.3 1.4 51
2019-04-11 23:00:00 8.7 8 Nordeste 14 Nordeste 0 937.9 1.4 45
2019-04-11 22:00:00 10.3 8 Nordeste 14 Nordeste 0 937.7 1.3 38
2019-04-11 21:00:00 12.2 9 Nordeste 23 Norte 0 936.9 0.6 33
2019-04-11 20:00:00 14.2 14 Nordeste 25 Nordeste 0 936.5 0.3 27
2019-04-11 19:00:00 15 11 Nordeste 31 Norte 0 936.4 -0.2 25
2019-04-11 18:00:00 14.8 12 Norte 33 Nordeste 0 936.3 -1 24
2019-04-11 17:00:00 15 17 Nordeste 33 Norte 0 936.2 -1.4 27
2019-04-11 16:00:00 15.2 16 Nordeste 34 Nordeste 0 936.6 -1.3 30
2019-04-11 15:00:00 14.5 14 Norte 30 Nordeste 0 937.3 -0.9 36
2019-04-11 14:00:00 12.9 13 Nordeste 31 Nordeste 0 937.6 -0.9 40
2019-04-11 13:00:00 11.7 11 Norte 27 Nordeste 0 937.9 -0.5 44
2019-04-11 12:00:00 10.6 12 Nordeste 25 Nordeste 0 938.2 -0.1 52
2019-04-11 11:00:00 8.7 8 Norte 17 Nordeste 0 938.5 0.5 66
2019-04-11 10:00:00 5.5 8 Nordeste 13 Nordeste 0 938.4 0.9 77
2019-04-11 09:00:00 3.7 4 Norte 10 Noroeste 0 938.3 1.1 87
2019-04-11 08:00:00 2.4 3 Nordeste 7 Nordeste 0 938 0.9 90
2019-04-11 07:00:00 3.4 3 Norte 12 Norte 0 937.5 0.9 88
2019-04-11 06:00:00 3.6 5 Nordeste 10 Nordeste 0 937.2 0.4 88
2019-04-11 05:00:00 3.7 4 Nordeste 8 Nordeste 0 937.1 0.2 89
2019-04-11 04:00:00 4 5 Nordeste 9 Nordeste 0 936.6 -0.3 89
2019-04-11 03:00:00 4.8 4 Nordeste 11 Norte 0 936.8 0.2 88
2019-04-11 02:00:00 4.9 5 Norte 11 Nordeste 0 936.9 0.9 86
2019-04-11 01:00:00 6 0 Calma 10 Noroeste 0 936.9 1.5 82
2019-04-11 00:00:00 7 3 Norte 21 Norte 0 936.6 2.1 78
2019-04-10 23:00:00 7.7 6 Norte 19 Norte 0 936 1.7 74
2019-04-10 22:00:00 8 3 Noroeste 14 Noroeste 0 935.4 2 73
2019-04-10 21:00:00 9 7 Noroeste 21 Noroeste 0 934.5 0.9 71
2019-04-10 20:00:00 9.3 0 Calma 10 Noroeste 0 934.3 1.4 73
2019-04-10 19:00:00 8.8 5 Nordeste 28 Nordeste 2.4 933.4 0.4 76
2019-04-10 18:00:00 12 13 Nordeste 42 Noroeste 0.1 933.6 0 45
2019-04-10 17:00:00 13.5 13 Noroeste 40 Noroeste 0 932.9 -0.6 38
2019-04-10 16:00:00 12.9 19 Noroeste 42 Noroeste 0 933 -1.6 38
2019-04-10 15:00:00 13.4 13 Noroeste 39 Noroeste 0 933.6 -0.8 37
2019-04-10 14:00:00 12.8 16 Noroeste 36 Noroeste 0 933.5 -1.4 39
2019-04-10 13:00:00 11.6 18 Noroeste 37 Noroeste 0 934.6 -0.2 46
2019-04-10 12:00:00 10.3 10 Norte 34 Noroeste 0 934.4 -0.2 55
2019-04-10 11:00:00 8.4 14 Noroeste 25 Noroeste 0 934.9 0.8 71
2019-04-10 10:00:00 6.5 8 Noroeste 15 Noroeste 0 934.8 0.5 79
2019-04-10 09:00:00 4.3 2 Noroeste 8 Noroeste 0 934.6 0.5 89
2019-04-10 08:00:00 3.1 0 Calma 10 Sudoeste 0 934.1 -0.1 90
2019-04-10 07:00:00 3.6 6 Sudoeste 11 Sudoeste 0 934.3 0.4 87
2019-04-10 06:00:00 4.4 9 Noroeste 14 Noroeste 0 934.1 -0.2 87
2019-04-10 05:00:00 4.8 5 Noroeste 10 Noroeste 0 934.2 -0.3 87
2019-04-10 04:00:00 4.5 4 Noroeste 12 Noroeste 0 933.9 -0.4 87
2019-04-10 03:00:00 6.1 6 Noroeste 14 Noroeste 0 934.3 0 83
2019-04-10 02:00:00 7.2 4 Norte 13 Noroeste 0 934.5 0.4 77
2019-04-10 01:00:00 7.1 5 Noroeste 14 Noroeste 0 934.3 0.7 76
2019-04-10 00:00:00 6.7 3 Noroeste 14 Noroeste 0 934.3 1 76
2019-04-09 23:00:00 7.5 3 Norte 11 Noroeste 0 934.1 1.7 75
2019-04-09 22:00:00 8 2 Norte 17 Noroeste 0 933.6 0.9 73
2019-04-09 21:00:00 8.5 2 Noroeste 24 Noroeste 0 933.3 1.2 69
2019-04-09 20:00:00 9.4 8 Noroeste 25 Noroeste 0.1 932.4 0.2 64
2019-04-09 19:00:00 8.7 9 Norte 39 Noroeste 0.4 932.7 -0.1 64
2019-04-09 18:00:00 11.7 21 Noroeste 43 Noroeste 0 932.1 -1 43
2019-04-09 17:00:00 11.1 15 Noroeste 35 Noroeste 0 932.2 -1.1 58
2019-04-09 16:00:00 9.5 10 Noroeste 54 Noroeste 0.5 932.8 -1.4 70
2019-04-09 15:00:00 10.8 11 Oeste 42 Sudoeste 0 933.1 -1.3 57
2019-04-09 14:00:00 12.1 5 Noroeste 32 Sudoeste 0 933.3 -1.4 45
2019-04-09 13:00:00 11.2 3 Oeste 35 Sudoeste 0 934.2 -0.8 50
2019-04-09 12:00:00 10.5 4 Noroeste 30 Noroeste 0 934.4 -0.7 50
2019-04-09 11:00:00 9.5 4 Oeste 26 Oeste 0 934.7 0.1 62
2019-04-09 10:00:00 6.7 10 Oeste 15 Oeste 0 935 0.1 83
2019-04-09 09:00:00 5 8 Sudoeste 14 Sudoeste 0 935.1 0.4 88
2019-04-09 08:00:00 4.6 3 Oeste 19 Sudoeste 0 934.6 -0.1 88
2019-04-09 07:00:00 4.4 4 Oeste 20 Sudoeste 0 934.9 0.6 88
2019-04-09 06:00:00 4.5 6 Oeste 15 Sudoeste 0 934.7 0.5 87
2019-04-09 05:00:00 6.3 3 Oeste 10 Sudoeste 0 934.7 0.1 83
2019-04-09 04:00:00 6 2 Oeste 11 Noroeste 0 934.3 0.3 81
2019-04-09 03:00:00 7.1 2 Noroeste 9 Noroeste 0 934.2 0.3 75
2019-04-09 02:00:00 8.1 4 Norte 19 Noroeste 0 934.6 1.1 69
2019-04-09 01:00:00 8.3 6 Norte 18 Noroeste 0 934 1.3 62
2019-04-09 00:00:00 9 13 Noroeste 27 Noroeste 0 933.9 1.6 53
2019-04-08 23:00:00 9.3 7 Noroeste 19 Noroeste 0 933.5 1.4 49
2019-04-08 22:00:00 10.4 0 Calma 21 Noroeste 0 932.7 1 48
2019-04-08 21:00:00 12.1 6 Noroeste 24 Noroeste 0 932.3 0.6 42
2019-04-08 20:00:00 14.3 7 Noroeste 23 Noroeste 0 932.1 0 37
2019-04-08 19:00:00 14.6 5 Noroeste 34 Noroeste 0 931.7 -0.8 37
2019-04-08 18:00:00 15.2 13 Noroeste 40 Noroeste 0 931.7 -1.2 39
2019-04-08 17:00:00 16.2 9 Noroeste 36 Noroeste 0 932.1 -1.5 35
2019-04-08 16:00:00 15.4 12 Noroeste 40 Noroeste 0 932.5 -1.9 44
2019-04-08 15:00:00 15.1 8 Noroeste 40 Noroeste 0 932.9 -1.5 46
2019-04-08 14:00:00 14.1 4 Noroeste 27 Noroeste 0 933.6 -0.6 61
2019-04-08 13:00:00 10.4 10 Noroeste 31 Oeste 0 934.4 0.1 81
2019-04-08 12:00:00 10.7 17 Sudoeste 25 Sudoeste 0.1 934.4 0.4 77
2019-04-08 11:00:00 9.8 11 Oeste 22 Oeste 0.1 934.2 0.5 84
2019-04-08 10:00:00 9.5 9 Oeste 20 Sudoeste 0.4 934.3 1 90
2019-04-08 09:00:00 9.3 9 Oeste 14 Sudoeste 0.4 934 0.5 94
2019-04-08 08:00:00 9.1 9 Oeste 21 Oeste 0.2 933.7 0.2 94
2019-04-08 07:00:00 9.1 14 Sudoeste 21 Sudoeste 1 933.3 0 94
2019-04-08 06:00:00 9 14 Sudoeste 19 Sudoeste 0.5 933.5 -0.5 94
2019-04-08 05:00:00 9 10 Sudoeste 17 Sudoeste 0 933.5 -0.7 94
2019-04-08 04:00:00 9 11 Sudoeste 20 Oeste 0.1 933.3 -1.5 95
2019-04-08 03:00:00 9 8 Sudoeste 19 Sudoeste 0 934 -0.5 94
2019-04-08 02:00:00 9 6 Sudoeste 14 Sudoeste 0 934.2 -0.5 88
2019-04-08 01:00:00 9 4 Sudoeste 12 Sudoeste 0 934.8 0.1 88
2019-04-08 00:00:00 9 4 Sudoeste 10 Sudoeste 0 934.5 0.2 85
2019-04-07 23:00:00 8.9 3 Sudoeste 7 Sudoeste 0 934.7 0.7 83
2019-04-07 22:00:00 8.8 3 Oeste 13 Noroeste 0.1 934.7 1.4 81
2019-04-07 21:00:00 9.2 3 Noroeste 19 Noroeste 0 934.3 1.4 74
2019-04-07 20:00:00 10.5 2 Noroeste 19 Noroeste 0 934 1.4 59
2019-04-07 19:00:00 11 7 Noroeste 28 Sudoeste 0 933.3 0.9 53
2019-04-07 18:00:00 11.3 10 Noroeste 35 Noroeste 0 932.9 -0.2 50
2019-04-07 17:00:00 12.1 14 Noroeste 31 Noroeste 0 932.6 -0.1 45
2019-04-07 16:00:00 12.1 10 Noroeste 29 Noroeste 0 932.4 0.2 45
2019-04-07 15:00:00 10.8 11 Noroeste 33 Noroeste 0 933.1 0.6 46
2019-04-07 14:00:00 10.7 11 Noroeste 30 Noroeste 0 932.7 1 49
2019-04-07 13:00:00 9.6 16 Noroeste 29 Noroeste 0 932.2 1.1 53
2019-04-07 12:00:00 8.9 13 Noroeste 33 Noroeste 0 932.5 2 62
2019-04-07 11:00:00 7.4 12 Noroeste 31 Noroeste 0 931.7 2 75
2019-04-07 10:00:00 6.2 18 Noroeste 34 Noroeste 0 931.1 2.3 82
2019-04-07 09:00:00 4.3 12 Noroeste 21 Noroeste 0 930.5 2 91
2019-04-07 08:00:00 4.3 3 Norte 26 Noroeste 0 929.7 1.7 90
2019-04-07 07:00:00 4.7 14 Noroeste 27 Noroeste 0 928.8 0.9 88
2019-04-07 06:00:00 4.7 6 Noroeste 22 Noroeste 0 928.5 0.7 87
2019-04-07 05:00:00 4.8 2 Noroeste 10 Sudoeste 0.1 928 0.2 88
2019-04-07 04:00:00 4.4 8 Oeste 15 Sudoeste 0 927.9 0.1 87
2019-04-07 03:00:00 4.4 10 Sudoeste 14 Sudoeste 0 927.8 0.3 85
2019-04-07 02:00:00 4 8 Oeste 17 Oeste 0 927.8 0.3 81
2019-04-07 01:00:00 4.6 8 Oeste 21 Oeste 0 927.8 1.1 78
2019-04-07 00:00:00 4.9 10 Oeste 18 Oeste 0 927.5 1.7 75
2019-04-06 23:00:00 5.7 2 Noroeste 19 Noroeste 0 927.5 2 71
2019-04-06 22:00:00 5.9 2 Noroeste 18 Noroeste 0 926.7 2.4 67
2019-04-06 21:00:00 6.3 2 Norte 28 Noroeste 0 925.8 2 66
2019-04-06 20:00:00 8.2 8 Noroeste 35 Noroeste 0 925.5 1.5 60
2019-04-06 19:00:00 7.9 5 Oeste 48 Sudoeste 0 924.3 -0.1 57
2019-04-06 18:00:00 9.5 6 Noroeste 32 Noroeste 0 923.8 -0.7 56
2019-04-06 17:00:00 8.1 5 Noroeste 50 Noroeste 2.2 924 -0.7 70
2019-04-06 16:00:00 9.2 14 Noroeste 58 Noroeste 0 924.4 -0.7 64
2019-04-06 15:00:00 10.1 7 Noroeste 33 Noroeste 0 924.5 -1.2 55
2019-04-06 14:00:00 9.1 5 Noroeste 40 Sudoeste 0.1 924.7 -0.6 64
2019-04-06 13:00:00 7.2 8 Oeste -- -- 0.5 925.1 -0.2 72
2019-04-06 12:00:00 5.6 20 Oeste 37 Sudoeste 0.2 925.7 0.4 85
2019-04-06 11:00:00 5.4 12 Sudoeste 24 Oeste 0 925.3 0.5 83
2019-04-06 10:00:00 4.9 15 Sudoeste 24 Oeste 0 925.3 1.2 82
2019-04-06 09:00:00 4.3 13 Sudoeste 22 Oeste 0 925.3 1.5 87
2019-04-06 08:00:00 3.9 11 Oeste 19 Oeste 0 924.8 0.9 87
2019-04-06 07:00:00 3.8 8 Oeste 17 Oeste 0 924.1 0.5 89
2019-04-06 06:00:00 3.9 5 Oeste 16 Oeste 0 923.8 0 89
2019-04-06 05:00:00 4.3 0 Calma 18 Sudoeste 0 923.9 -0.2 92
2019-04-06 04:00:00 4.2 9 Oeste 21 Oeste 0.3 923.6 -0.1 92
2019-04-06 03:00:00 4.1 12 Oeste 21 Oeste 0 923.8 0.1 91
2019-04-06 02:00:00 4.2 6 Oeste 19 Oeste 0 924.1 0.7 87
2019-04-06 01:00:00 4.6 4 Oeste 23 Sudoeste 0.3 923.7 1 85
2019-04-06 00:00:00 4.4 10 Oeste 18 Oeste 0 923.7 1.6 80
2019-04-05 23:00:00 3.9 9 Oeste 18 Sudoeste 0 923.4 2.2 81
2019-04-05 22:00:00 3.8 9 Sudoeste 16 Sudoeste 0 922.7 2.6 79
2019-04-05 21:00:00 4.8 6 Noroeste 36 Noroeste 0 922.1 1.9 67
2019-04-05 20:00:00 6.2 16 Noroeste 33 Noroeste 1.2 921.2 1.7 74
2019-04-05 19:00:00 6.3 16 Noroeste 32 Noroeste 1.6 920.1 -0.7 74
2019-04-05 18:00:00 5 3 Oeste 35 Noroeste 3.7 920.2 -0.8 84
2019-04-05 17:00:00 8.5 17 Oeste 31 Oeste 0 919.5 -1.5 67
2019-04-05 16:00:00 6.6 20 Sudoeste 41 Sudoeste 0 920.8 -0.8 84
2019-04-05 15:00:00 6.4 22 Sudoeste 44 Sudoeste 0.6 921 -1 85
2019-04-05 14:00:00 7.7 20 Sudoeste 36 Sudoeste 0 921 -0.5 76
2019-04-05 13:00:00 7 24 Sudoeste 40 Sudoeste 0.1 921.6 0.4 78
2019-04-05 12:00:00 6.7 17 Sudoeste 32 Sudoeste 0.1 922 0.2 84
2019-04-05 11:00:00 6.6 17 Sudoeste 39 Sudoeste 0.1 921.5 -0.2 78
2019-04-05 10:00:00 7.2 17 Sudoeste 31 Oeste 0 921.2 -0.6 72
2019-04-05 09:00:00 7.1 12 Sudoeste 23 Sur 0 921.8 0.1 72
2019-04-05 08:00:00 6.9 10 Sudoeste 21 Sudoeste 0 921.7 0 68
2019-04-05 07:00:00 7.1 10 Sudoeste 28 Sudoeste 0 921.8 -0.4 61
2019-04-05 06:00:00 7.4 18 Sudoeste 27 Sudoeste 0 921.7 -0.7 49
2019-04-05 05:00:00 7.8 13 Sudoeste 20 Oeste 0 921.7 -0.2 46
2019-04-05 04:00:00 8.3 12 Sudoeste 19 Sudoeste 0 922.2 0.1 45
2019-04-05 03:00:00 8.7 7 Sudoeste 17 Oeste 0 922.4 0.2 42
2019-04-05 02:00:00 9.2 10 Sudoeste 17 Oeste 0 921.9 -0.1 40
2019-04-05 01:00:00 9.7 8 Oeste 14 Sudoeste 0 922.1 0.3 38
2019-04-05 00:00:00 9.7 4 Sudoeste 11 Sudoeste 0 922.2 0.7 37
2019-04-04 23:00:00 9.7 4 Sudoeste 10 Sur 0 922 0 34
2019-04-04 22:00:00 10.6 5 Sudoeste 12 Sur 0 921.8 -0.4 30
2019-04-04 21:00:00 11.9 6 Sudoeste 29 Sudoeste 0 921.5 -1.1 28
2019-04-04 20:00:00 13.1 18 Sudoeste 28 Sudoeste 0 922 -1.3 26
2019-04-04 19:00:00 13 12 Sudoeste 26 Sudoeste 0 922.2 -1.7 25
2019-04-04 18:00:00 13.7 4 Oeste 21 Sudoeste 0 922.6 -2 23
2019-04-04 17:00:00 13.5 6 Sudoeste 21 Sudoeste 0 923.3 -1.9 22
2019-04-04 16:00:00 12.6 6 Oeste 23 Noroeste 0 923.9 -2.1 23
2019-04-04 15:00:00 11.8 6 Noroeste 21 Noroeste 0 924.6 -1.7 26
2019-04-04 14:00:00 11.3 0 Calma 13 Noroeste 0 925.2 -1 26
2019-04-04 13:00:00 10.3 2 Noroeste 13 Oeste 0 926 -0.5 30
2019-04-04 12:00:00 9.1 0 Calma 12 Noroeste 0 926.3 -0.1 36
2019-04-04 11:00:00 6.9 5 Nordeste 14 Nordeste 0 926.2 0.3 45
2019-04-04 10:00:00 4.7 7 Nordeste 14 Nordeste 0 926.5 1.4 55
2019-04-04 09:00:00 2.4 5 Nordeste 8 Nordeste 0 926.4 1.5 71
2019-04-04 08:00:00 1 5 Nordeste 8 Nordeste 0 925.9 1.5 76
2019-04-04 07:00:00 1.2 5 Nordeste 10 Nordeste 0 925.1 0.2 70
2019-04-04 06:00:00 1.9 6 Nordeste 10 Nordeste 0 924.9 -0.3 67
2019-04-04 05:00:00 2.7 4 Nordeste 8 Nordeste 0 924.4 -0.7 59
2019-04-04 04:00:00 3.8 3 Nordeste 8 Norte 0 924.9 -0.4 53
2019-04-04 03:00:00 4.5 5 Nordeste 10 Nordeste 0 925.2 0.3 48
2019-04-04 02:00:00 5.4 5 Nordeste 16 Norte 0 925.1 -0.2 41
2019-04-04 01:00:00 6.8 10 Nordeste 15 Nordeste 0 925.3 0.5 37
2019-04-04 00:00:00 8.4 4 Norte 15 Norte 0 924.9 1.1 34
2019-04-03 23:00:00 10 4 Norte 23 Norte 0 925.3 1.9 32
2019-04-03 22:00:00 11 9 Norte 23 Norte 0 924.8 1.5 30
2019-04-03 21:00:00 12.1 12 Norte 28 Nordeste 0 923.8 0.6 29
2019-04-03 20:00:00 12.7 13 Norte 33 Nordeste 0 923.4 -0.1 30
2019-04-03 19:00:00 14.3 17 Norte 38 Noroeste 0 923.3 -0.8 32
2019-04-03 18:00:00 16.2 17 Noroeste 37 Noroeste 0 923.2 -1.8 28
2019-04-03 17:00:00 18.3 13 Noroeste 30 Noroeste 0 923.5 -2.1 25
2019-04-03 16:00:00 18.2 6 Oeste 36 Sudoeste 0 924.1 -2.4 24
2019-04-03 15:00:00 17.1 11 Noroeste 35 Noroeste 0 925 -2.6 27
2019-04-03 14:00:00 15.9 17 Noroeste 40 Noroeste 0 925.6 -2.5 26
2019-04-03 13:00:00 15.2 4 Noroeste 39 Sudoeste 0 926.5 -2.2 32
2019-04-03 12:00:00 14.7 5 Oeste 26 Sudoeste 0 927.6 -1.7 43
2019-04-03 11:00:00 11.4 13 Sudoeste 20 Oeste 0 928.1 -1.7 64
2019-04-03 10:00:00 9.1 6 Sudoeste 11 Sudoeste 0 928.7 -1.4 79
2019-04-03 09:00:00 7.1 3 Sur 9 Sudoeste 0 929.3 -0.7 83
2019-04-03 08:00:00 7.2 6 Sudoeste 11 Sudoeste 0 929.8 -1.2 82
2019-04-03 07:00:00 7.8 0 Calma 7 Nordeste 0 930.1 -1.5 81
2019-04-03 06:00:00 7.6 0 Calma 6 Sur 0 930 -2.3 83
2019-04-03 05:00:00 7.9 0 Calma 6 Sur 0 931 -1.8 83
2019-04-03 04:00:00 8.6 3 Sur 8 Sur 0 931.6 -1.8 83
2019-04-03 03:00:00 9.1 2 Sur 8 Sur 0 932.3 -1.9 83
2019-04-03 02:00:00 9.6 3 Sur 9 Sur 0 932.8 -0.9 81
2019-04-03 01:00:00 10.2 6 Sur 14 Sur 0 933.4 -0.4 78
2019-04-03 00:00:00 10.7 4 Sudoeste 8 Sudoeste 0 934.2 0.9 75
2019-04-02 23:00:00 11.9 3 Sur 8 Sur 0 933.7 -0.1 68
2019-04-02 22:00:00 12.5 4 Sudoeste 6 Sudoeste 0 933.8 0.3 65
2019-04-02 21:00:00 13 0 Calma 15 Sudoeste 0 933.3 -0.1 64
2019-04-02 20:00:00 13.3 5 Noroeste 30 Noroeste 0 933.8 -0.3 57
2019-04-02 19:00:00 16.1 9 Noroeste 24 Noroeste 0 933.5 -0.8 38
2019-04-02 18:00:00 16.1 4 Noroeste 26 Sudoeste 0 933.4 -1.5 38
2019-04-02 17:00:00 16.4 3 Oeste 28 Sudoeste 0 934.1 -1.3 42
2019-04-02 16:00:00 15.1 9 Oeste 26 Sudoeste 0 934.3 -2.5 52
2019-04-02 15:00:00 15.3 6 Sudoeste 20 Oeste 0 934.9 -1.7 54
2019-04-02 14:00:00 14.3 8 Sudoeste 20 Sudoeste 0 935.4 -1.3 63
2019-04-02 13:00:00 12.7 7 Sudoeste 17 Sudoeste 0 936.8 0.7 69
2019-04-02 12:00:00 12 8 Sudoeste 14 Sudoeste 0 936.6 0.4 79
2019-04-02 11:00:00 10.6 5 Sudoeste 10 Sudoeste 0 936.7 0.8 85
2019-04-02 10:00:00 9.6 2 Sur 6 Sudoeste 0 936.1 0.8 89
2019-04-02 09:00:00 8.9 0 Calma 8 Sur 0 936.2 1.3 91
2019-04-02 08:00:00 8.6 3 Sur 8 Sur 0 935.9 -0.2 91
2019-04-02 07:00:00 8.8 2 Sur 5 Sur 0 935.3 -0.5 91
2019-04-02 06:00:00 9.2 0 Calma 11 Sudoeste 0 934.9 -0.9 91
2019-04-02 05:00:00 9.2 5 Sudoeste 10 Sudoeste 0 936.1 -0.1 92
2019-04-02 04:00:00 9.8 6 Sur 11 Sur 0 935.8 -0.1 87
2019-04-02 03:00:00 10.5 3 Sur 6 Sur 0.1 935.8 -0.4 83
2019-04-02 02:00:00 10.5 0 Calma 6 Sur 0 936.2 0.6 83
2019-04-02 01:00:00 10.4 4 Nordeste 10 Oeste 0 935.9 0.6 85
2019-04-02 00:00:00 10.3 8 Sudoeste 17 Sudoeste 0 936.2 2 82
2019-04-01 23:00:00 11.2 9 Sur 16 Sudeste 0 935.6 1.8 80
2019-04-01 22:00:00 11.9 6 Sur 13 Sur 0 935.3 1.8 74
2019-04-01 21:00:00 12.1 3 Sudeste 10 Sur 0 934.2 0.5 72
2019-04-01 20:00:00 12.8 4 Sur 17 Sudoeste 0 933.8 0.3 68
2019-04-01 19:00:00 13 7 Sur 27 Sudeste 0 933.5 0 70
2019-04-01 18:00:00 13.5 11 Sur 24 Sudoeste 0 933.7 -0.3 63
2019-04-01 17:00:00 15.2 5 Sudoeste 17 Oeste 0 933.5 -0.6 56
2019-04-01 16:00:00 13.9 6 Sudoeste 15 Sudoeste 0 933.5 -1.1 59
2019-04-01 15:00:00 13.4 7 Sudoeste 18 Sudoeste 0 934 -0.4 59
2019-04-01 14:00:00 12.8 6 Sudoeste 19 Sudoeste 0 934.1 -0.1 62
2019-04-01 13:00:00 12.2 9 Sudoeste 15 Oeste 0 934.6 0.9 72
2019-04-01 12:00:00 12.1 5 Sur 12 Sudeste 0 934.4 1 71
2019-04-01 11:00:00 10.9 6 Sur 17 Sur 0 934.2 0.9 83
2019-04-01 10:00:00 10 6 Sur 16 Sudeste 0 933.7 0.9 89
2019-04-01 09:00:00 9.4 5 Sudeste 14 Sudeste 0 933.4 0.7 91
2019-04-01 08:00:00 9.1 5 Sudeste 13 Sudeste 0 933.3 0.6 91
2019-04-01 07:00:00 9 4 Sudeste 15 Sudeste 0 932.8 -0.3 91
2019-04-01 06:00:00 9.1 6 Sudeste 15 Sudeste 0.1 932.7 -0.5 92
2019-04-01 05:00:00 8.9 4 Sudeste 12 Sudeste 0.1 932.7 -0.9 92
2019-04-01 04:00:00 9 3 Sudeste 8 Sudeste 0.1 933.1 -0.5 92
2019-04-01 03:00:00 9.1 0 Calma 6 Sudeste 0.4 933.2 -0.4 92
2019-04-01 02:00:00 9.1 2 Este 9 Sur 0 933.6 0.3 91
2019-04-01 01:00:00 9.2 2 Sudeste 9 Sudeste 0 933.6 0.4 92
2019-04-01 00:00:00 9 4 Sudeste 18 Sudeste 0.2 933.6 0.8 93
2019-03-31 23:00:00 9.2 0 Calma 13 Este 0.7 933.3 0.9 94
2019-03-31 22:00:00 9.4 3 Sudeste 9 Sudeste 0.6 933.2 0.9 93
2019-03-31 21:00:00 9.6 0 Calma 12 Sudeste 0.1 932.8 0.5 91
2019-03-31 20:00:00 10.1 4 Sudeste 17 Sudeste 0 932.4 0.3 85
2019-03-31 19:00:00 10.6 5 Sudeste 16 Sur 0 932.3 -0.6 84
2019-03-31 18:00:00 10.1 9 Sudeste 21 Sudeste 0.4 932.3 -1.1 86
2019-03-31 17:00:00 10.7 4 Este 15 Sudeste 0.8 932.1 -2 88
2019-03-31 16:00:00 10.7 5 Sudeste 14 Sudeste 0.2 932.9 -1.6 86
2019-03-31 15:00:00 10.5 5 Sudeste 13 Sudeste 1 933.4 -1.2 88
2019-03-31 14:00:00 9.1 6 Sudeste 15 Sudeste 1.4 934.1 -0.3 91
2019-03-31 13:00:00 8.5 5 Sudeste 21 Sudeste 2.2 934.5 0.3 92
2019-03-31 12:00:00 7.9 5 Sudeste 26 Sudeste 1.5 934.6 0.9 93
2019-03-31 11:00:00 7.6 10 Sudeste 34 Sudeste 0 934.4 0.4 91
2019-03-31 10:00:00 7.4 11 Sudeste 30 Sudeste 0 934.2 0.5 85
2019-03-31 09:00:00 7.7 10 Sudeste 31 Sudeste 0 933.7 -0.6 83
2019-03-31 08:00:00 7.6 11 Sudeste 34 Sudeste 0 934 -0.7 82
2019-03-31 07:00:00 7.8 9 Sudeste 29 Sudeste 0 933.7 -1.4 76
2019-03-31 06:00:00 7.5 8 Sudeste 26 Sudeste 0 934.3 -1.5 75
2019-03-31 05:00:00 7.6 6 Sudeste 31 Sudeste 0 934.7 -1.5 72
2019-03-31 03:00:00 8.1 8 Sudeste 30 Sudeste 0 935.8 -0.2 68
2019-03-31 01:00:00 8.9 8 Sudeste 26 Sudeste 0 936.2 -0.2 65
2019-03-31 00:00:00 10 7 Sudeste 27 Sudeste 0 936.7 0.6 66
2019-03-30 23:00:00 10.7 12 Sudeste 34 Sudeste 0 936 0.1 65
2019-03-30 22:00:00 11.8 12 Sudeste 33 Sudeste 0 936.4 1 61
2019-03-30 21:00:00 12.9 11 Sudeste 33 Sudeste 0 936.1 0.4 55
2019-03-30 20:00:00 15 9 Sudeste 27 Sudeste 0 935.9 0.3 45
2019-03-30 19:00:00 17 9 Sudeste 30 Sudeste 0 935.4 -0.9 41
2019-03-30 18:00:00 17.3 8 Sudeste 23 Sudeste 0 935.7 -1.3 39
2019-03-30 17:00:00 18.5 10 Sudeste 27 Sudeste 0 935.6 -2.2 37
2019-03-30 16:00:00 19.4 7 Sudeste 24 Sudeste 0 936.3 -2.5 37
2019-03-30 15:00:00 18.4 9 Sudeste 23 Sudeste 0 937 -2.8 37
2019-03-30 14:00:00 17.4 10 Sudeste 33 Sudoeste 0 937.8 -2.8 41
2019-03-30 13:00:00 15.6 9 Sudeste 27 Sudeste 0 938.8 -1.5 46
2019-03-30 12:00:00 13.5 12 Sudeste 31 Este 0 939.8 -0.9 54
2019-03-30 11:00:00 11.5 13 Sudeste 40 Sudeste 0 940.6 0.3 62
2019-03-30 10:00:00 9.8 13 Sudeste 37 Sudeste 0 940.3 0.2 71
2019-03-30 09:00:00 7.4 11 Sudeste 30 Sur 0 940.7 0.7 82
2019-03-30 08:00:00 6.2 10 Sudeste 30 Sudeste 0 940.3 0 82
2019-03-30 07:00:00 6 11 Sudeste 30 Sudeste 0 940.1 -0.6 84
2019-03-30 06:00:00 6 10 Sudeste 32 Sudeste 0 940 -1.2 83
2019-03-30 05:00:00 6.2 13 Sudeste 33 Sudeste 0 940.3 -1.3 79
2019-03-30 04:00:00 6.4 14 Sudeste 38 Sudeste 0 940.7 -1.1 74
2019-03-30 03:00:00 6.8 14 Sudeste 40 Sudeste 0 941.2 -0.9 68
2019-03-30 02:00:00 7.1 14 Sudeste 35 Sudeste 0 941.6 -0.5 64
2019-03-30 01:00:00 7.5 15 Sudeste 35 Sudeste 0 941.8 0 62
2019-03-30 00:00:00 8.2 15 Sudeste 38 Sur 0 942.1 0.6 58
2019-03-29 23:00:00 9 12 Sudeste 36 Sudeste 0 942.1 1.4 57
2019-03-29 22:00:00 9.7 13 Sudeste 35 Sudeste 0 941.8 1.4 56
2019-03-29 21:00:00 11.2 9 Sudeste 21 Sudeste 0 941.5 1 49
2019-03-29 20:00:00 12.7 10 Sudeste 28 Sudeste 0 940.7 0.2 44
2019-03-29 19:00:00 14.1 15 Sudeste 36 Sudeste 0 940.4 -0.5 42
2019-03-29 18:00:00 15.1 13 Sudeste 30 Sudeste 0 940.5 -1.2 39
2019-03-29 17:00:00 15.6 13 Sudeste 34 Sudeste 0 940.5 -1.4 39
2019-03-29 16:00:00 14.8 14 Sudeste 41 Sudeste 0 940.9 -2 41
2019-03-29 15:00:00 16 15 Sur 36 Sudeste 0 941.7 -2.1 40
2019-03-29 14:00:00 15.6 16 Sur 38 Sur 0 941.9 -2.3 41
2019-03-29 13:00:00 14.2 15 Sudeste 42 Sudeste 0 942.9 -1.4 42
2019-03-29 12:00:00 13.5 15 Sudeste 39 Sudeste 0 943.8 -0.7 43
2019-03-29 11:00:00 12 17 Sudeste 42 Sudeste 0 944.2 0.1 46
2019-03-29 10:00:00 10.1 14 Sudeste 36 Sudeste 0 944.3 0.2 50
2019-03-29 09:00:00 8.1 12 Sudeste 29 Sudeste 0 944.5 0.6 54
2019-03-29 08:00:00 6.3 9 Sudeste 25 Sudeste 0 944.1 0.5 56
2019-03-29 07:00:00 5.4 9 Sudeste 28 Sudeste 0 944.1 0.1 55
2019-03-29 06:00:00 5.3 10 Sudeste 27 Sudeste 0 943.9 0.1 53
2019-03-29 05:00:00 6.5 10 Sudeste 27 Sudeste 0 943.6 -0.7 52
2019-03-29 04:00:00 6.7 8 Sudeste 24 Sudeste 0 944 -0.4 51
2019-03-29 03:00:00 7 8 Sudeste 21 Sudeste 0 943.8 -0.7 50
2019-03-29 02:00:00 7.4 8 Sudeste 25 Sudeste 0 944.3 0 48
2019-03-29 01:00:00 8 9 Sudeste 23 Sudeste 0 944.4 0.7 43
2019-03-29 00:00:00 8.8 8 Sudeste 20 Sudeste 0 944.5 1 37
2019-03-28 23:00:00 9.9 8 Sudeste 19 Sudeste 0 944.3 1.6 35
2019-03-28 22:00:00 11 7 Sudeste 15 Sudeste 0 943.7 0.9 33
2019-03-28 21:00:00 12.5 3 Sudeste 10 Sudeste 0 943.5 1.1 30
2019-03-28 20:00:00 14.6 5 Sudeste 18 Sudeste 0 942.7 0.2 28
2019-03-28 19:00:00 16.2 10 Sudeste 23 Sudeste 0 942.8 -0.7 26
2019-03-28 18:00:00 17 9 Sudeste 24 Sudeste 0 942.4 -1.6 25
2019-03-28 17:00:00 18.3 10 Sudeste 24 Sudeste 0 942.5 -1.9 24
2019-03-28 16:00:00 17.8 8 Sur 30 Sudeste 0 943.5 -1.4 24
2019-03-28 15:00:00 18 8 Sudeste 29 Sudeste 0 944 -1.8 25
2019-03-28 14:00:00 18.3 8 Sudeste 24 Sudeste 0 944.4 -1.5 27
2019-03-28 13:00:00 17.1 7 Sudeste 26 Sur 0 944.9 -1.4 27
2019-03-28 12:00:00 14.6 10 Sur 25 Sudeste 0 945.8 -0.4 28
2019-03-28 11:00:00 14 10 Sudeste 23 Sur 0 945.9 -0.3 30
2019-03-28 10:00:00 11.9 5 Sudeste 17 Sur 0 946.3 0 37
2019-03-28 09:00:00 8 4 Este 12 Este 0 946.2 0.9 49
2019-03-28 08:00:00 4.5 3 Este 9 Este 0 946.2 1 54
2019-03-28 07:00:00 4.6 4 Este 18 Sudeste 0 946.3 1.4 54
2019-03-28 06:00:00 5.1 7 Sudeste 19 Sudeste 0 945.3 0.4 54
2019-03-28 05:00:00 5.4 5 Sudeste 17 Sudeste 0 945.2 0.3 55
2019-03-28 04:00:00 6.1 7 Sudeste 19 Sudeste 0 944.9 0.2 54
2019-03-28 03:00:00 6.7 4 Sudeste 19 Sudeste 0 944.9 0.3 51
2019-03-28 02:00:00 7.2 10 Sudeste 23 Sur 0 944.9 1.3 46
2019-03-28 01:00:00 7.7 10 Sudeste 31 Sur 0 944.7 1.1 40
2019-03-28 00:00:00 8.7 13 Sudeste 29 Sudeste 0 944.6 1.9 34
2019-03-27 23:00:00 10.2 9 Sudeste 23 Sudeste 0 943.6 1.6 30
2019-03-27 22:00:00 10.7 5 Sudeste 11 Sur 0 943.6 2.4 29
2019-03-27 21:00:00 12.5 5 Sudeste 18 Sur 0 942.7 1.6 29
2019-03-27 20:00:00 14.4 5 Sur 19 Sur 0 942 1.1 28
2019-03-27 19:00:00 15.9 8 Sur 17 Sur 0 941.2 -0.3 28
2019-03-27 18:00:00 16.8 4 Sudeste 18 Sur 0 941.1 -0.5 28
2019-03-27 17:00:00 18.1 0 Calma 15 Nordeste 0 940.9 -1.7 27
2019-03-27 16:00:00 17.7 0 Calma 18 Nordeste 0 941.5 -1.5 27
2019-03-27 15:00:00 17 6 Sudeste 22 Sur 0 941.6 -1.9 29
2019-03-27 14:00:00 16.9 6 Sudeste 19 Sudeste 0 942.6 -1 32
2019-03-27 13:00:00 15.1 6 Sudeste 21 Sudeste 0 943 -0.2 35
2019-03-27 12:00:00 14.2 7 Sudeste 21 Sudeste 0 943.5 0.4 37
2019-03-27 11:00:00 12.1 6 Sudeste 24 Sudeste 0 943.6 0.6 42
2019-03-27 10:00:00 10.1 7 Sudeste 19 Sur 0 943.2 1 49
2019-03-27 09:00:00 7.4 4 Sudeste 13 Nordeste 0 943.1 1.3 64
2019-03-27 08:00:00 4.5 9 Nordeste 18 Nordeste 0 943 1.6 75
2019-03-27 07:00:00 4.9 4 Este 11 Nordeste 0 942.2 0.8 78
2019-03-27 06:00:00 5.1 3 Sudeste 17 Sudeste 0 941.8 -0.2 78
2019-03-27 05:00:00 5.8 5 Sudeste 24 Sudeste 0 941.4 0 78
2019-03-27 04:00:00 6.2 8 Sudeste 24 Sudeste 0 941.4 -0.2 78
2019-03-27 03:00:00 6.4 6 Sudeste 23 Sudeste 0 942 0.8 76
2019-03-27 02:00:00 6.5 8 Sudeste 28 Sudeste 0 941.4 1.5 72
2019-03-27 01:00:00 7.2 7 Sudeste 22 Sudeste 0 941.6 2.4 68
2019-03-27 00:00:00 8.7 8 Sudeste 28 Sudeste 0 941.2 2.5 52
2019-03-26 23:00:00 9.6 12 Sudeste 30 Sudeste 0 939.9 2.4 44
2019-03-26 22:00:00 11.2 11 Sudeste 31 Sudeste 0 939.2 2 40
2019-03-26 21:00:00 12.6 13 Sudeste 34 Sudeste 0 938.7 1.8 37
2019-03-26 20:00:00 14.5 12 Sudeste 30 Sudeste 0 937.5 0.8 34
2019-03-26 19:00:00 16.3 16 Sudeste 34 Sudeste 0 937.2 0.5 31
2019-03-26 18:00:00 17.7 14 Sudeste 32 Sudeste 0 936.9 0.1 32
2019-03-26 17:00:00 19.3 13 Sudeste 34 Sudeste 0 936.7 -0.8 31
2019-03-26 16:00:00 20.6 12 Sudeste 31 Sudeste 0 936.7 -1.2 31
2019-03-26 15:00:00 20.4 11 Sudeste 33 Sudeste 0 936.8 -1.6 32
2019-03-26 14:00:00 19.2 14 Sudeste 36 Sudeste 0 937.5 -1.2 34
2019-03-26 13:00:00 18.3 12 Sudeste 40 Sudeste 0 937.9 -0.5 36
2019-03-26 12:00:00 16.4 14 Sudeste 36 Sudeste 0 938.4 0.2 38
2019-03-26 11:00:00 15.3 14 Sudeste 36 Sudeste 0 938.7 0.6 41
2019-03-26 10:00:00 13.8 12 Sudeste 32 Sudeste 0 938.4 0.9 43
2019-03-26 09:00:00 10.2 4 Sudeste 17 Nordeste 0 938.2 1 51
2019-03-26 08:00:00 5.7 13 Nordeste 21 Nordeste 0 938.1 0.8 57
2019-03-26 07:00:00 5.2 9 Nordeste 24 Nordeste 0 937.5 0.3 56
2019-03-26 06:00:00 4.8 11 Nordeste 17 Nordeste 0 937.2 -0.2 55
2019-03-26 05:00:00 5.4 5 Nordeste 17 Nordeste 0 937.3 -0.2 52
2019-03-26 04:00:00 5.7 9 Nordeste 14 Nordeste 0 937.2 -0.5 48
2019-03-26 03:00:00 6.3 10 Nordeste 17 Nordeste 0 937.4 0.1 44
2019-03-26 02:00:00 8 9 Nordeste 13 Nordeste 0 937.5 0.1 41
2019-03-26 01:00:00 9.5 6 Nordeste 17 Nordeste 0 937.7 0.3 35
2019-03-26 00:00:00 10.2 9 Nordeste 16 Nordeste 0 937.3 0.1 32
2019-03-25 23:00:00 10.8 8 Nordeste 17 Nordeste 0 937.4 1 29
2019-03-25 22:00:00 13.5 9 Nordeste 19 Nordeste 0 937.4 1.2 28
2019-03-25 21:00:00 14.5 9 Nordeste 17 Nordeste 0 937.2 0.9 28
2019-03-25 20:00:00 16.5 8 Nordeste 19 Nordeste 0 936.4 0.2 28
2019-03-25 19:00:00 19 12 Nordeste 22 Nordeste 0 936.2 -0.8 26
2019-03-25 18:00:00 20.4 6 Nordeste 20 Nordeste 0 936.3 -1.5 24
2019-03-25 17:00:00 21.1 7 Nordeste 24 Nordeste 0 936.2 -2.6 23
2019-03-25 16:00:00 21.9 5 Este 19 Sudeste 0 937 -2.6 23
2019-03-25 15:00:00 21.6 8 Nordeste 19 Nordeste 0 937.8 -3.1 23
2019-03-25 14:00:00 22.1 6 Nordeste 19 Nordeste 0 938.8 -2.2 26
2019-03-25 13:00:00 20.9 6 Sudeste 18 Sudeste 0 939.6 -1.8 26
2019-03-25 12:00:00 19.7 6 Este 21 Nordeste 0 940.9 -0.6 30
2019-03-25 11:00:00 17.5 7 Nordeste 13 Nordeste 0 941 -0.2 35
2019-03-25 10:00:00 13 0 Calma 6 Nordeste 0 941.4 0.6 45
2019-03-25 09:00:00 8 3 Norte 7 Norte 0 941.5 0.2 51
2019-03-25 08:00:00 4.9 2 Sudoeste 9 Nordeste 0 941.2 0 53
2019-03-25 07:00:00 6.9 5 Nordeste 14 Sudeste 0 940.8 -0.6 50
2019-03-25 06:00:00 7 8 Nordeste 13 Nordeste 0 941.3 -0.3 51
2019-03-25 05:00:00 6.9 7 Nordeste 16 Nordeste 0 941.2 -0.7 50
2019-03-25 04:00:00 6.5 12 Nordeste 18 Nordeste 0 941.4 -0.2 51
2019-03-25 03:00:00 6.5 5 Nordeste 13 Nordeste 0 941.6 -0.1 49
2019-03-25 02:00:00 7.8 7 Nordeste 11 Nordeste 0 941.9 0.1 47
2019-03-25 01:00:00 9.9 3 Este 10 Sudeste 0 941.6 -0.1 44
2019-03-25 00:00:00 11 5 Sudeste 14 Sudeste 0 941.7 0.2 40